Lamar, Colorado
Current Conditions -  °F | °C
As of 8:53 PM on Wednesday 26 Nov 2014 (Local Time) from KLAA Reporting Station
Clear Clear  
Wind Chill: 19°   Ceiling: Unl
Heat Index: 26°   Visibility: 10mi
Dew Point: 19°   Wind: 6mph
Humidity: 75%   Direction: 160°SSE
Pressure: 30.33"   Gusts: NA
Location:  38.09°N, 102.61°W
Report Text: KLAA 270353Z AUTO 16005KT 10SM CLR M03/M07 A3033 RMK AO2 SLP288 T10331072
Loading
Personal Weather Stations






























Interactive Weather Map New forecast layout! Learn more

10-Day Weather Forecast

Advertisements
Track Severe Weather on mobile